Terminal Aerodrome Forecast
Issued by NWS

Home | Current Version | Previous Version | Text Only | Print | Product List | Glossary On
Versions: 1 2 3 4 5 6 7 8 9 10 11 12 13 14 15 16 17 18 19 20 21 22 23 24 25 26 27 28 29 30 31 32 33 34 35 36 37 38 39 40 41
649
FTUS45 KBOI 101740
TAFTWF
TAF
KTWF 101740Z 1018/1118 12004KT P6SM SCT004
     FM110200 17006KT 6SM BR FEW010=

USA.gov is the U.S. government's official web portal to all federal, state and local government web resources and services.